Time;durP1;ratioP1;P1;durP2;ratioP2;P2;SDS_P1;SDS_P2;PMS_P1;PMS_P2;Temp;Humidity;BMP_temperature;BMP_pressure;BME280_temperature;BME280_humidity;BME280_pressure;Samples;Min_cycle;Max_cycle;Signal;HPM_P1;HPM_P2
2023/08/11 00:01:22;;;;;;;1999.90;999.90;;;19.50;99.90;;;;;;5054841;28;20160;-70
2023/08/11 00:03:48;;;;;;;1999.90;999.90;;;19.40;99.90;;;;;;5053307;28;20455;-70
2023/08/11 00:06:16;;;;;;;1999.90;999.90;;;19.50;99.90;;;;;;5053177;28;20760;-70
2023/08/11 00:08:42;;;;;;;1999.90;999.90;;;19.30;99.90;;;;;;5053061;28;20192;-70
2023/08/11 00:11:07;;;;;;;1999.90;999.90;;;19.20;99.90;;;;;;5052840;28;20585;-70
2023/08/11 00:13:33;;;;;;;1999.90;999.90;;;19.20;99.90;;;;;;5052970;28;20406;-70
2023/08/11 00:16:01;;;;;;;1999.90;999.90;;;19.10;99.90;;;;;;5052944;28;20183;-70
2023/08/11 00:18:26;;;;;;;1999.90;999.90;;;19.10;99.90;;;;;;5052712;28;20214;-70
2023/08/11 00:20:52;;;;;;;1999.90;999.90;;;19.10;99.90;;;;;;5055070;28;20420;-70
2023/08/11 00:23:18;;;;;;;1999.90;999.90;;;19.00;99.90;;;;;;5053042;28;20172;-70
2023/08/11 00:25:44;;;;;;;1999.90;999.90;;;19.00;99.90;;;;;;5052754;28;20695;-70
2023/08/11 00:28:09;;;;;;;1999.90;999.90;;;18.90;99.90;;;;;;5052665;28;20433;-70
2023/08/11 00:30:35;;;;;;;1999.90;999.90;;;18.80;99.90;;;;;;5052631;28;20600;-70
2023/08/11 00:33:01;;;;;;;1999.90;999.90;;;18.70;99.90;;;;;;5052410;28;20163;-70
2023/08/11 00:35:27;;;;;;;1999.90;999.90;;;18.60;99.90;;;;;;5052923;28;20509;-70
2023/08/11 00:37:53;;;;;;;1999.90;999.90;;;18.40;99.90;;;;;;5053624;28;20730;-70
2023/08/11 00:40:19;;;;;;;1999.90;999.90;;;18.40;99.90;;;;;;5053857;28;20501;-70
2023/08/11 00:42:45;;;;;;;1999.90;999.90;;;18.40;99.90;;;;;;5054141;28;20190;-70
2023/08/11 00:45:11;;;;;;;1999.90;999.90;;;18.40;99.90;;;;;;5053066;28;20420;-70
2023/08/11 00:47:41;;;;;;;1999.90;999.90;;;18.40;99.90;;;;;;5052380;28;20439;-70
2023/08/11 00:50:08;;;;;;;1999.90;999.90;;;18.40;99.90;;;;;;5052314;28;20196;-70
2023/08/11 00:52:33;;;;;;;1999.90;999.90;;;18.30;99.90;;;;;;5052063;28;20417;-70
2023/08/11 00:54:59;;;;;;;1999.90;999.90;;;18.30;99.90;;;;;;5052321;28;21080;-70
2023/08/11 00:57:25;;;;;;;1999.90;999.90;;;18.20;99.90;;;;;;5052107;28;20936;-70
2023/08/11 00:59:50;;;;;;;1999.90;999.90;;;18.20;99.90;;;;;;5052220;28;20197;-70
2023/08/11 01:02:16;;;;;;;1999.90;999.90;;;18.20;99.90;;;;;;5051966;28;20549;-69
2023/08/11 01:04:42;;;;;;;1999.90;999.90;;;18.20;99.90;;;;;;5052177;28;20171;-70
2023/08/11 01:07:31;;;;;;;1999.90;999.90;;;18.20;99.90;;;;;;5052035;28;20182;-70
2023/08/11 01:10:16;;;;;;;1999.90;999.90;;;18.10;99.90;;;;;;5052181;28;20481;-70
2023/08/11 01:13:06;;;;;;;1999.90;999.90;;;18.10;99.90;;;;;;5052463;28;20810;-70
2023/08/11 01:15:37;;;;;;;1999.90;999.90;;;18.10;99.90;;;;;;5067869;28;20421;-70
2023/08/11 01:18:05;;;;;;;1999.90;999.90;;;17.90;99.90;;;;;;5052661;28;20457;-70
2023/08/11 01:20:33;;;;;;;1999.90;999.90;;;18.00;99.90;;;;;;5052643;28;20493;-70
2023/08/11 01:23:00;;;;;;;1999.90;999.90;;;18.00;99.90;;;;;;5051717;28;20408;-70
2023/08/11 01:25:27;;;;;;;1999.90;999.90;;;18.00;99.90;;;;;;5052877;28;20425;-70
2023/08/11 01:27:55;;;;;;;1999.90;999.90;;;18.10;99.90;;;;;;5053375;28;20407;-70
2023/08/11 01:30:22;;;;;;;1999.90;999.90;;;18.00;99.90;;;;;;5052965;28;20407;-70
2023/08/11 01:32:48;;;;;;;1999.90;999.90;;;18.10;99.90;;;;;;5052768;28;20508;-70
2023/08/11 01:35:14;;;;;;;1999.90;999.90;;;18.10;99.90;;;;;;5052774;28;20917;-70
2023/08/11 01:37:39;;;;;;;1999.90;999.90;;;18.00;99.90;;;;;;5052410;28;20460;-70
2023/08/11 01:40:10;;;;;;;1999.90;999.90;;;18.10;99.90;;;;;;5052769;28;20431;-69
2023/08/11 01:42:40;;;;;;;1999.90;999.90;;;17.90;99.90;;;;;;5051995;28;20201;-70
2023/08/11 01:45:08;;;;;;;1999.90;999.90;;;17.90;99.90;;;;;;5052264;28;20397;-70
2023/08/11 01:47:36;;;;;;;1999.90;999.90;;;17.90;99.90;;;;;;5052851;28;20828;-70
2023/08/11 01:50:02;;;;;;;1999.90;999.90;;;17.80;99.90;;;;;;5052770;28;20461;-70
2023/08/11 01:52:33;;;;;;;1999.90;999.90;;;17.80;99.90;;;;;;5052208;28;20433;-70
2023/08/11 01:54:59;;;;;;;1999.90;999.90;;;17.70;99.90;;;;;;5052355;28;20400;-70
2023/08/11 01:57:25;;;;;;;1999.90;999.90;;;17.70;99.90;;;;;;5054545;28;20765;-70
2023/08/11 01:59:52;;;;;;;1999.90;999.90;;;17.70;99.90;;;;;;5055244;28;20194;-70
2023/08/11 02:02:18;;;;;;;1999.90;999.90;;;17.70;99.90;;;;;;5055747;28;20453;-70
2023/08/11 02:04:43;;;;;;;1999.90;999.90;;;17.70;99.90;;;;;;5055904;28;20458;-69
2023/08/11 02:07:09;;;;;;;1999.90;999.90;;;17.70;99.90;;;;;;5055958;28;20811;-70
2023/08/11 02:09:36;;;;;;;1999.90;999.90;;;17.60;99.90;;;;;;5055655;28;20563;-70
2023/08/11 02:12:02;;;;;;;1999.90;999.90;;;17.60;99.90;;;;;;5055524;28;20919;-69
2023/08/11 02:14:27;;;;;;;1999.90;999.90;;;17.60;99.90;;;;;;5055781;28;20824;-70
2023/08/11 02:16:53;;;;;;;1999.90;999.90;;;17.60;99.90;;;;;;5055169;28;20552;-70
2023/08/11 02:19:19;;;;;;;1999.90;999.90;;;17.50;99.90;;;;;;5055626;28;20255;-70
2023/08/11 02:21:44;;;;;;;1999.90;999.90;;;17.40;99.90;;;;;;5055267;28;20172;-69
2023/08/11 02:24:10;;;;;;;1999.90;999.90;;;17.40;99.90;;;;;;5055088;28;20237;-70
2023/08/11 02:26:36;;;;;;;1999.90;999.90;;;17.30;99.90;;;;;;5055044;28;20231;-70
2023/08/11 02:29:03;;;;;;;1999.90;999.90;;;17.40;99.90;;;;;;5054914;28;20189;-70
2023/08/11 02:31:31;;;;;;;1999.90;999.90;;;17.30;99.90;;;;;;5054609;28;20650;-69
2023/08/11 02:33:56;;;;;;;1999.90;999.90;;;17.30;99.90;;;;;;5054492;28;20987;-70
2023/08/11 02:36:23;;;;;;;1999.90;999.90;;;17.40;99.90;;;;;;5054861;28;20486;-70
2023/08/11 02:38:49;;;;;;;1999.90;999.90;;;17.40;99.90;;;;;;5054452;28;20266;-69
2023/08/11 02:41:15;;;;;;;1999.90;999.90;;;17.40;99.90;;;;;;5054593;28;20402;-69
2023/08/11 02:43:41;;;;;;;1999.90;999.90;;;17.40;99.90;;;;;;5055124;28;20827;-70
2023/08/11 02:46:06;;;;;;;1999.90;999.90;;;17.30;99.90;;;;;;5054810;28;20251;-70
2023/08/11 02:48:35;;;;;;;1999.90;999.90;;;17.40;99.90;;;;;;5054638;28;20887;-70
2023/08/11 02:51:04;;;;;;;1999.90;999.90;;;17.30;99.90;;;;;;5054341;28;20175;-69
2023/08/11 02:53:30;;;;;;;1999.90;999.90;;;17.30;99.90;;;;;;5054480;28;20821;-70
2023/08/11 02:55:55;;;;;;;1999.90;999.90;;;17.30;99.90;;;;;;5054634;28;20490;-70
2023/08/11 02:58:21;;;;;;;1999.90;999.90;;;17.30;99.90;;;;;;5054370;28;20203;-70
2023/08/11 03:00:47;;;;;;;1999.90;999.90;;;17.30;99.90;;;;;;5054406;28;20171;-70
2023/08/11 03:03:13;;;;;;;1999.90;999.90;;;17.20;99.90;;;;;;5054205;28;20178;-70
2023/08/11 03:05:39;;;;;;;1999.90;999.90;;;17.20;99.90;;;;;;5054293;28;21020;-70
2023/08/11 03:08:04;;;;;;;1999.90;999.90;;;17.10;99.90;;;;;;5053898;28;20175;-69
2023/08/11 03:10:30;;;;;;;1999.90;999.90;;;17.20;99.90;;;;;;5054837;28;20182;-69
2023/08/11 03:12:55;;;;;;;1999.90;999.90;;;17.20;99.90;;;;;;5054449;28;20223;-70
2023/08/11 03:15:21;;;;;;;1999.90;999.90;;;17.10;99.90;;;;;;5054712;28;20195;-69
2023/08/11 03:17:47;;;;;;;1999.90;999.90;;;17.10;99.90;;;;;;5054601;28;20273;-70
2023/08/11 03:20:14;;;;;;;1999.90;999.90;;;17.10;99.90;;;;;;5054509;28;21099;-69
2023/08/11 03:22:42;;;;;;;1999.90;999.90;;;17.10;99.90;;;;;;5054402;28;20206;-70
2023/08/11 03:25:09;;;;;;;1999.90;999.90;;;17.00;99.90;;;;;;5054421;28;20404;-70
2023/08/11 03:27:34;;;;;;;1999.90;999.90;;;16.90;99.90;;;;;;5054882;28;20501;-70
2023/08/11 03:30:00;;;;;;;1999.90;999.90;;;16.90;99.90;;;;;;5054346;28;20446;-70
2023/08/11 03:32:26;;;;;;;1999.90;999.90;;;17.00;99.90;;;;;;5055275;28;20171;-70
2023/08/11 03:34:52;;;;;;;1999.90;999.90;;;16.90;99.90;;;;;;5054393;28;20166;-70
2023/08/11 03:37:18;;;;;;;1999.90;999.90;;;16.90;99.90;;;;;;5053878;28;20601;-70
2023/08/11 03:39:43;;;;;;;1999.90;999.90;;;16.80;99.90;;;;;;5053827;28;20449;-70
2023/08/11 03:42:09;;;;;;;1999.90;999.90;;;16.90;99.90;;;;;;5053804;28;20161;-70
2023/08/11 03:44:35;;;;;;;1999.90;999.90;;;16.80;99.90;;;;;;5053605;28;20244;-69
2023/08/11 03:47:00;;;;;;;1999.90;999.90;;;16.80;99.90;;;;;;5053613;28;20171;-70
2023/08/11 03:49:26;;;;;;;1999.90;999.90;;;16.80;99.90;;;;;;5053395;28;20191;-70
2023/08/11 03:51:51;;;;;;;1999.90;999.90;;;16.70;99.90;;;;;;5053201;28;20721;-70
2023/08/11 03:54:17;;;;;;;1999.90;999.90;;;16.70;99.90;;;;;;5053375;28;20656;-70
2023/08/11 03:56:43;;;;;;;1999.90;999.90;;;16.70;99.90;;;;;;5053817;28;20225;-69
2023/08/11 03:59:09;;;;;;;1999.90;999.90;;;16.70;99.90;;;;;;5053220;28;20210;-69
2023/08/11 04:01:34;;;;;;;1999.90;999.90;;;16.70;99.90;;;;;;5052918;28;20408;-69
2023/08/11 04:04:00;;;;;;;1999.90;999.90;;;16.70;99.90;;;;;;5053305;28;20214;-69
2023/08/11 04:06:32;;;;;;;1999.90;999.90;;;16.70;99.90;;;;;;5053155;28;20186;-70
2023/08/11 04:08:58;;;;;;;1999.90;999.90;;;16.70;99.90;;;;;;5053250;28;20195;-70
2023/08/11 04:11:23;;;;;;;1999.90;999.90;;;16.70;99.90;;;;;;5053112;28;20411;-70
2023/08/11 04:13:49;;;;;;;1999.90;999.90;;;16.60;99.90;;;;;;5054103;28;20748;-70
2023/08/11 04:16:14;;;;;;;1999.90;999.90;;;16.60;99.90;;;;;;5053937;28;20174;-70
2023/08/11 04:18:40;;;;;;;1999.90;999.90;;;16.60;99.90;;;;;;5053942;28;20210;-70
2023/08/11 04:21:06;;;;;;;1999.90;999.90;;;16.60;99.90;;;;;;5053520;28;20198;-70
2023/08/11 04:23:31;;;;;;;1999.90;999.90;;;16.50;99.90;;;;;;5054512;28;20535;-70
2023/08/11 04:25:57;;;;;;;1999.90;999.90;;;16.60;99.90;;;;;;5053801;28;20171;-70
2023/08/11 04:28:23;;;;;;;1999.90;999.90;;;16.60;99.90;;;;;;5053746;28;20189;-70
2023/08/11 04:30:48;;;;;;;1999.90;999.90;;;16.60;99.90;;;;;;5053885;28;20583;-70
2023/08/11 04:33:15;;;;;;;1999.90;999.90;;;16.60;99.90;;;;;;5053364;28;20190;-70
2023/08/11 04:35:41;;;;;;;1999.90;999.90;;;16.60;99.90;;;;;;5053698;28;20924;-70
2023/08/11 04:38:07;;;;;;;1999.90;999.90;;;16.50;99.90;;;;;;5053082;28;20465;-70
2023/08/11 04:40:33;;;;;;;1999.90;999.90;;;16.60;99.90;;;;;;5053242;28;20494;-70
2023/08/11 04:42:59;;;;;;;1999.90;999.90;;;16.60;99.90;;;;;;5052179;28;20631;-70
2023/08/11 04:45:26;;;;;;;1999.90;999.90;;;16.60;99.90;;;;;;5049409;28;20417;-70
2023/08/11 04:47:51;;;;;;;1999.90;999.90;;;16.70;99.90;;;;;;5051968;28;20408;-70
2023/08/11 04:50:17;;;;;;;1999.90;999.90;;;16.60;99.90;;;;;;5052108;28;20917;-70
2023/08/11 04:52:43;;;;;;;1999.90;999.90;;;16.70;99.90;;;;;;5050825;28;20179;-70
2023/08/11 04:55:09;;;;;;;1999.90;999.90;;;16.70;99.90;;;;;;5051901;28;20406;-70
2023/08/11 04:57:35;;;;;;;1999.90;999.90;;;16.60;99.90;;;;;;5051943;28;20218;-70
2023/08/11 05:00:01;;;;;;;1999.90;999.90;;;16.60;99.90;;;;;;5051538;28;20456;-70
2023/08/11 05:02:27;;;;;;;1999.90;999.90;;;16.70;99.90;;;;;;5051601;28;20410;-70
2023/08/11 05:04:53;;;;;;;1999.90;999.90;;;16.70;99.90;;;;;;5051754;28;20406;-70
2023/08/11 05:07:19;;;;;;;1999.90;999.90;;;16.70;99.90;;;;;;5051335;28;20533;-70
2023/08/11 05:09:44;;;;;;;1999.90;999.90;;;16.80;99.90;;;;;;5051684;28;20208;-70
2023/08/11 05:12:12;;;;;;;1999.90;999.90;;;16.80;99.90;;;;;;5051433;28;20406;-70
2023/08/11 05:14:37;;;;;;;1999.90;999.90;;;16.80;99.90;;;;;;5051208;28;20588;-70
2023/08/11 05:17:03;;;;;;;1999.90;999.90;;;16.80;99.90;;;;;;5052727;28;20498;-70
2023/08/11 05:19:29;;;;;;;1999.90;999.90;;;16.90;99.90;;;;;;5052796;28;20217;-70
2023/08/11 05:21:54;;;;;;;1999.90;999.90;;;17.00;99.90;;;;;;5052693;28;20413;-70
2023/08/11 05:24:21;;;;;;;1999.90;999.90;;;17.00;99.90;;;;;;5053559;28;20171;-70
2023/08/11 05:26:47;;;;;;;1999.90;999.90;;;17.00;99.90;;;;;;5052824;28;20160;-70
2023/08/11 05:29:12;;;;;;;1999.90;999.90;;;17.10;99.90;;;;;;5052615;28;20423;-70
2023/08/11 05:31:38;;;;;;;1999.90;999.90;;;17.10;99.90;;;;;;5050171;28;20813;-69
2023/08/11 05:34:04;;;;;;;1999.90;999.90;;;17.20;99.90;;;;;;5055084;28;20182;-70
2023/08/11 05:36:29;;;;;;;1999.90;999.90;;;17.20;99.90;;;;;;5064820;28;20189;-70
2023/08/11 05:38:55;;;;;;;1999.90;999.90;;;17.30;99.90;;;;;;5053819;28;20238;-69
2023/08/11 05:41:20;;;;;;;1999.90;999.90;;;17.40;99.90;;;;;;5050829;28;20176;-70
2023/08/11 05:43:46;;;;;;;1999.90;999.90;;;17.40;99.90;;;;;;5050990;28;20240;-70
2023/08/11 05:46:11;;;;;;;1999.90;999.90;;;17.50;99.90;;;;;;5051309;28;20172;-70
2023/08/11 05:48:37;;;;;;;1999.90;999.90;;;17.50;99.90;;;;;;5051336;28;20223;-70
2023/08/11 05:51:04;;;;;;;1999.90;999.90;;;17.50;99.90;;;;;;5050603;28;20253;-70
2023/08/11 05:53:29;;;;;;;1999.90;999.90;;;17.60;99.90;;;;;;5051606;28;20814;-70
2023/08/11 05:55:55;;;;;;;1999.90;999.90;;;17.60;99.90;;;;;;5051410;28;20406;-70
2023/08/11 05:58:21;;;;;;;1999.90;999.90;;;17.70;99.90;;;;;;5050921;28;20201;-70
2023/08/11 06:00:48;;;;;;;1999.90;999.90;;;17.70;99.90;;;;;;5051387;28;20181;-70
2023/08/11 06:03:14;;;;;;;1999.90;999.90;;;17.80;99.90;;;;;;5051188;28;20411;-70
2023/08/11 06:05:39;;;;;;;1999.90;999.90;;;17.80;99.90;;;;;;5050077;28;20583;-70
2023/08/11 06:08:05;;;;;;;1999.90;999.90;;;17.80;99.90;;;;;;5050730;28;20414;-70
2023/08/11 06:10:32;;;;;;;1999.90;999.90;;;18.00;99.90;;;;;;5051263;28;20645;-70
2023/08/11 06:12:57;;;;;;;1999.90;999.90;;;18.10;99.90;;;;;;5050493;28;20165;-70
2023/08/11 06:15:23;;;;;;;1999.90;999.90;;;18.10;99.90;;;;;;5051154;28;20404;-70
2023/08/11 06:17:50;;;;;;;1999.90;999.90;;;18.20;99.90;;;;;;5050922;28;20450;-70
2023/08/11 06:20:19;;;;;;;1999.90;999.90;;;18.30;99.90;;;;;;5050686;28;20247;-70
2023/08/11 06:22:48;;;;;;;1999.90;999.90;;;18.40;99.90;;;;;;5050815;28;20403;-70
2023/08/11 06:25:17;;;;;;;1999.90;999.90;;;18.50;99.90;;;;;;5051244;28;20413;-70
2023/08/11 06:27:43;;;;;;;1999.90;999.90;;;18.50;99.90;;;;;;5050708;28;20437;-70
2023/08/11 06:30:12;;;;;;;1999.90;999.90;;;18.60;99.90;;;;;;5050890;28;20484;-70
2023/08/11 06:32:38;;;;;;;1999.90;999.90;;;18.70;99.90;;;;;;5050917;28;20918;-70
2023/08/11 06:35:06;;;;;;;1999.90;999.90;;;18.80;99.90;;;;;;5050461;28;20436;-70
2023/08/11 06:37:31;;;;;;;1999.90;999.90;;;18.90;99.90;;;;;;5050823;28;20172;-70
2023/08/11 06:39:58;;;;;;;1999.90;999.90;;;19.00;99.90;;;;;;5050804;28;20441;-69
2023/08/11 06:42:24;;;;;;;1999.90;999.90;;;19.00;99.90;;;;;;5050065;28;20199;-69
2023/08/11 06:44:50;;;;;;;1999.90;999.90;;;19.10;99.90;;;;;;5053454;28;20397;-70
2023/08/11 06:47:15;;;;;;;1999.90;999.90;;;19.10;99.90;;;;;;5054480;28;20410;-70
2023/08/11 06:49:41;;;;;;;1999.90;999.90;;;19.20;99.90;;;;;;5053964;28;20226;-70
2023/08/11 06:52:06;;;;;;;1999.90;999.90;;;19.20;99.90;;;;;;5054160;28;20171;-70
2023/08/11 06:54:33;;;;;;;1999.90;999.90;;;19.40;99.90;;;;;;5054399;28;20538;-70
2023/08/11 06:57:01;;;;;;;1999.90;999.90;;;19.40;99.90;;;;;;5053708;28;20192;-69
2023/08/11 06:59:27;;;;;;;1999.90;999.90;;;19.50;99.90;;;;;;5054064;28;20826;-69
2023/08/11 07:01:52;;;;;;;1999.90;999.90;;;19.60;99.90;;;;;;5053784;28;20402;-69
2023/08/11 07:04:18;;;;;;;1999.90;999.90;;;19.70;99.90;;;;;;5053670;28;20699;-69
2023/08/11 07:06:44;;;;;;;1999.90;999.90;;;19.80;99.90;;;;;;5054141;28;20525;-70
2023/08/11 07:09:09;;;;;;;1999.90;999.90;;;20.00;99.90;;;;;;5053910;28;20501;-69
2023/08/11 07:11:35;;;;;;;1999.90;999.90;;;20.10;99.90;;;;;;5053656;28;20184;-69
2023/08/11 07:14:00;;;;;;;1999.90;999.90;;;20.20;99.90;;;;;;5053518;28;20247;-69
2023/08/11 07:16:26;;;;;;;1999.90;999.90;;;20.20;99.90;;;;;;5053815;28;20235;-69
2023/08/11 07:18:51;;;;;;;1999.90;999.90;;;20.30;99.90;;;;;;5053730;28;20238;-69
2023/08/11 07:21:17;;;;;;;1999.90;999.90;;;20.40;99.90;;;;;;5053066;28;20188;-70
2023/08/11 07:23:42;;;;;;;1999.90;999.90;;;20.50;99.90;;;;;;5053821;28;20238;-70
2023/08/11 07:26:08;;;;;;;1999.90;999.90;;;20.60;99.90;;;;;;5053629;28;20639;-70
2023/08/11 07:28:34;;;;;;;1999.90;999.90;;;20.60;99.90;;;;;;5053192;28;20220;-70
2023/08/11 07:30:59;;;;;;;1999.90;999.90;;;20.70;99.90;;;;;;5053399;28;20169;-70
2023/08/11 07:33:25;;;;;;;1999.90;999.90;;;20.80;99.90;;;;;;5053635;28;20185;-70
2023/08/11 07:35:50;;;;;;;1999.90;999.90;;;20.90;99.90;;;;;;5053225;28;20178;-70
2023/08/11 07:38:16;;;;;;;1999.90;999.90;;;21.00;99.90;;;;;;5053429;28;20206;-70
2023/08/11 07:40:42;;;;;;;1999.90;999.90;;;21.10;99.90;;;;;;5053603;28;20656;-70
2023/08/11 07:43:07;;;;;;;1999.90;999.90;;;21.20;99.90;;;;;;5052967;28;20180;-70
2023/08/11 07:45:33;;;;;;;1999.90;999.90;;;21.30;99.90;;;;;;5053771;28;20818;-70
2023/08/11 07:47:59;;;;;;;1999.90;999.90;;;21.40;99.90;;;;;;5053865;28;20177;-70
2023/08/11 07:50:25;;;;;;;1999.90;999.90;;;21.50;99.90;;;;;;5053000;28;20405;-70
2023/08/11 07:52:50;;;;;;;1999.90;999.90;;;21.60;99.90;;;;;;5053047;28;20223;-70
2023/08/11 07:55:16;;;;;;;1999.90;999.90;;;21.80;99.90;;;;;;5052767;28;20671;-70
2023/08/11 07:57:41;;;;;;;1999.90;999.90;;;21.90;99.90;;;;;;5048127;28;20187;-70
2023/08/11 08:00:13;;;;;;;1999.90;999.90;;;22.00;99.90;;;;;;5044928;28;20196;-70
2023/08/11 08:02:40;;;;;;;1999.90;999.90;;;22.10;99.90;;;;;;5044509;28;20239;-70
2023/08/11 08:05:05;;;;;;;1999.90;999.90;;;22.10;99.90;;;;;;5052357;28;20394;-70
2023/08/11 08:07:31;;;;;;;1999.90;999.90;;;22.20;99.90;;;;;;5050516;28;20442;-69
2023/08/11 08:09:57;;;;;;;1999.90;999.90;;;22.30;99.90;;;;;;5039130;28;20664;-72
2023/08/11 08:12:24;;;;;;;1999.90;999.90;;;22.40;99.90;;;;;;5054788;28;20177;-73
2023/08/11 08:14:50;;;;;;;1999.90;999.90;;;22.50;99.90;;;;;;5039899;28;20260;-68
2023/08/11 08:17:16;;;;;;;1999.90;999.90;;;22.70;99.90;;;;;;5055559;28;20497;-72
2023/08/11 08:19:41;;;;;;;1999.90;999.90;;;22.80;99.90;;;;;;5048738;28;20199;-71
2023/08/11 08:22:07;;;;;;;1999.90;999.90;;;22.90;99.90;;;;;;5044141;28;20247;-71
2023/08/11 08:24:33;;;;;;;1999.90;999.90;;;23.00;99.90;;;;;;5062083;28;20229;-73
2023/08/11 08:26:58;;;;;;;1999.90;999.90;;;23.10;99.90;;;;;;5044357;28;20386;-72
2023/08/11 08:29:24;;;;;;;1999.90;999.90;;;23.20;99.90;;;;;;5041792;28;20239;-74
2023/08/11 08:31:50;;;;;;;1999.90;999.90;;;23.30;99.90;;;;;;5052673;28;20170;-75
2023/08/11 08:34:15;;;;;;;1999.90;999.90;;;23.40;99.90;;;;;;5069836;28;20203;-72
2023/08/11 08:36:41;;;;;;;1999.90;999.90;;;23.60;99.90;;;;;;5059828;28;20176;-72
2023/08/11 08:39:07;;;;;;;1999.90;999.90;;;23.70;99.90;;;;;;5043901;28;20206;-72
2023/08/11 08:41:37;;;;;;;1999.90;999.90;;;23.80;99.90;;;;;;5055184;28;20186;-74
2023/08/11 08:44:03;;;;;;;1999.90;999.90;;;23.90;99.90;;;;;;5038146;28;20401;-74
2023/08/11 08:46:31;;;;;;;1999.90;999.90;;;24.00;99.90;;;;;;5038216;28;20899;-74
2023/08/11 08:49:18;;;;;;;1999.90;999.90;;;24.10;99.90;;;;;;5042294;28;20438;-71
2023/08/11 08:51:44;;;;;;;1999.90;999.90;;;24.30;99.90;;;;;;5047239;28;20374;-71
2023/08/11 08:54:10;;;;;;;1999.90;999.90;;;24.40;99.90;;;;;;5050954;28;20885;-71
2023/08/11 08:56:38;;;;;;;1999.90;999.90;;;24.60;99.90;;;;;;5051431;28;20172;-71
2023/08/11 08:59:04;;;;;;;1999.90;999.90;;;24.70;99.90;;;;;;5049876;28;20214;-71
2023/08/11 09:01:30;;;;;;;1999.90;999.90;;;24.80;99.90;;;;;;5044606;28;20430;-71
2023/08/11 09:03:57;;;;;;;1999.90;999.90;;;24.90;99.90;;;;;;5051071;28;20410;-71
2023/08/11 09:06:25;;;;;;;1999.90;999.90;;;25.00;99.90;;;;;;5054214;28;20409;-71
2023/08/11 09:08:50;;;;;;;1999.90;999.90;;;25.10;99.90;;;;;;5046945;28;20414;-71
2023/08/11 09:11:16;;;;;;;1999.90;999.90;;;25.20;99.90;;;;;;5050453;28;20420;-71
2023/08/11 09:13:47;;;;;;;1999.90;999.90;;;25.30;99.90;;;;;;5051708;28;20194;-71
2023/08/11 09:16:14;;;;;;;1999.90;999.90;;;25.50;98.60;;;;;;5048593;28;20390;-71
2023/08/11 09:18:41;;;;;;;1999.90;999.90;;;25.60;95.90;;;;;;5044109;28;20456;-71
2023/08/11 09:21:07;;;;;;;1999.90;999.90;;;25.70;94.00;;;;;;5041130;28;20443;-71
2023/08/11 09:23:33;;;;;;;1999.90;999.90;;;25.80;96.30;;;;;;5051440;28;20389;-71
2023/08/11 09:26:01;;;;;;;1999.90;999.90;;;25.90;92.30;;;;;;5050713;28;20382;-71
2023/08/11 09:28:26;;;;;;;1999.90;999.90;;;26.00;91.50;;;;;;5051410;28;20405;-71
2023/08/11 09:30:52;;;;;;;1999.90;999.90;;;25.90;91.10;;;;;;5051362;28;20391;-71
2023/08/11 09:33:21;;;;;;;1999.90;999.90;;;26.00;92.90;;;;;;5050730;28;20171;-72
2023/08/11 09:35:48;;;;;;;1999.90;999.90;;;26.20;93.10;;;;;;5051332;28;20406;-71
2023/08/11 09:38:13;;;;;;;1999.90;999.90;;;26.20;94.80;;;;;;5051257;28;20471;-71
2023/08/11 09:40:41;;;;;;;1999.90;999.90;;;26.30;94.50;;;;;;5055148;28;20449;-71
2023/08/11 09:43:07;;;;;;;1999.90;999.90;;;26.50;89.30;;;;;;5043578;28;20175;-72
2023/08/11 09:45:33;;;;;;;1999.90;999.90;;;26.60;89.80;;;;;;5050937;28;20410;-71
2023/08/11 09:47:58;;;;;;;1999.90;999.90;;;26.70;90.20;;;;;;5050512;28;20497;-71
2023/08/11 09:50:30;;;;;;;1999.90;999.90;;;26.80;87.30;;;;;;5050979;28;20551;-71
2023/08/11 09:52:59;;;;;;;1999.90;999.90;;;26.90;81.20;;;;;;5050329;28;20171;-71
2023/08/11 09:55:28;;;;;;;1999.90;999.90;;;26.90;84.80;;;;;;5050685;28;20417;-71
2023/08/11 09:57:56;;;;;;;1999.90;999.90;;;26.90;88.70;;;;;;5050817;28;20623;-71
2023/08/11 10:00:23;;;;;;;1999.90;999.90;;;27.00;80.10;;;;;;5042824;28;20867;-71
2023/08/11 10:03:10;;;;;;;1999.90;999.90;;;27.10;79.30;;;;;;5049859;28;20555;-71
2023/08/11 10:05:42;;;;;;;1999.90;999.90;;;27.20;71.30;;;;;;5050807;28;20402;-71
2023/08/11 10:08:14;;;;;;;1999.90;999.90;;;27.30;74.60;;;;;;5051074;28;20423;-71
2023/08/11 10:10:41;;;;;;;1999.90;999.90;;;27.40;67.70;;;;;;5050411;28;20385;-71
2023/08/11 10:13:11;;;;;;;1999.90;999.90;;;27.40;65.10;;;;;;5050481;28;20410;-72
2023/08/11 10:15:38;;;;;;;1999.90;999.90;;;27.40;65.80;;;;;;5051081;28;20416;-70
2023/08/11 10:18:05;;;;;;;1999.90;999.90;;;27.40;74.50;;;;;;5051413;28;20485;-71
2023/08/11 10:20:31;;;;;;;1999.90;999.90;;;27.60;72.70;;;;;;5054250;28;20403;-70
2023/08/11 10:22:57;;;;;;;1999.90;999.90;;;27.70;70.20;;;;;;5053772;28;20467;-70
2023/08/11 10:25:24;;;;;;;1999.90;999.90;;;27.70;68.50;;;;;;5053352;28;20251;-71
2023/08/11 10:27:50;;;;;;;1999.90;999.90;;;27.70;78.50;;;;;;5053075;28;20416;-71
2023/08/11 10:30:17;;;;;;;1999.90;999.90;;;27.60;83.60;;;;;;5045830;28;20758;-70
2023/08/11 10:32:43;;;;;;;1999.90;999.90;;;27.50;83.80;;;;;;5053443;28;20364;-72
2023/08/11 10:35:19;;;;;;;1999.90;999.90;;;27.50;80.90;;;;;;5054388;28;20467;-72
2023/08/11 10:37:56;;;;;;;1999.90;999.90;;;27.60;74.50;;;;;;5053636;28;20644;-72
2023/08/11 10:40:22;;;;;;;1999.90;999.90;;;27.70;80.10;;;;;;5053887;28;21095;-71
2023/08/11 10:42:50;;;;;;;1999.90;999.90;;;27.90;90.50;;;;;;5053435;28;20414;-72
2023/08/11 10:45:18;;;;;;;1999.90;999.90;;;28.00;70.90;;;;;;5053894;28;20626;-72
2023/08/11 10:47:54;;;;;;;1999.90;999.90;;;28.10;58.50;;;;;;5043159;28;20451;-71
2023/08/11 10:50:21;;;;;;;1999.90;999.90;;;28.10;72.20;;;;;;5049885;28;20766;-72
2023/08/11 10:52:55;;;;;;;1999.90;999.90;;;28.20;67.50;;;;;;5049329;28;20413;-72
2023/08/11 10:55:21;;;;;;;1999.90;999.90;;;28.50;60.00;;;;;;5053265;28;20813;-71
2023/08/11 10:58:19;;;;;;;1999.90;999.90;;;28.70;52.10;;;;;;5053705;28;20896;-72
2023/08/11 11:00:45;;;;;;;1999.90;999.90;;;28.80;51.50;;;;;;5045065;28;20389;-72
2023/08/11 11:03:12;;;;;;;1999.90;999.90;;;28.80;54.40;;;;;;5052898;28;20405;-71
2023/08/11 11:05:42;;;;;;;1999.90;999.90;;;28.80;50.80;;;;;;5053364;28;20168;-72
2023/08/11 11:08:07;;;;;;;1999.90;999.90;;;29.00;44.80;;;;;;5053813;28;20429;-72
2023/08/11 11:10:33;;;;;;;1999.90;999.90;;;29.20;43.20;;;;;;5053283;28;20410;-72
2023/08/11 11:12:58;;;;;;;1999.90;999.90;;;29.20;44.30;;;;;;5053169;28;20642;-72
2023/08/11 11:15:29;;;;;;;1999.90;999.90;;;29.20;48.10;;;;;;5053628;28;20176;-72
2023/08/11 11:17:56;;;;;;;1999.90;999.90;;;29.30;43.00;;;;;;5053142;28;20713;-72
2023/08/11 11:20:22;;;;;;;1999.90;999.90;;;29.50;45.70;;;;;;5053703;28;20410;-72
2023/08/11 11:22:48;;;;;;;1999.90;999.90;;;29.70;35.20;;;;;;5052447;28;20753;-72
2023/08/11 11:25:16;;;;;;;1999.90;999.90;;;29.80;37.60;;;;;;5052784;28;20782;-72
2023/08/11 11:27:42;;;;;;;1999.90;999.90;;;29.80;36.30;;;;;;5053638;28;20471;-71
2023/08/11 11:30:09;;;;;;;1999.90;999.90;;;30.00;37.60;;;;;;5052719;28;20962;-72
2023/08/11 11:32:35;;;;;;;1999.90;999.90;;;30.10;41.20;;;;;;5052174;28;20414;-72
2023/08/11 11:35:01;;;;;;;1999.90;999.90;;;30.20;36.90;;;;;;5053617;28;20398;-72
2023/08/11 11:37:26;;;;;;;1999.90;999.90;;;30.40;38.20;;;;;;5053256;28;20192;-72
2023/08/11 11:39:54;;;;;;;1999.90;999.90;;;30.50;42.40;;;;;;5052723;28;20695;-72
2023/08/11 11:42:19;;;;;;;1999.90;999.90;;;30.70;39.10;;;;;;5052500;28;20206;-72
2023/08/11 11:44:45;;;;;;;1999.90;999.90;;;30.80;37.60;;;;;;5053151;28;20645;-72
2023/08/11 11:47:12;;;;;;;1999.90;999.90;;;30.90;39.00;;;;;;5052648;28;20172;-72
2023/08/11 11:49:37;;;;;;;1999.90;999.90;;;30.90;31.00;;;;;;5053051;28;20529;-72
2023/08/11 11:52:05;;;;;;;1999.90;999.90;;;30.90;31.20;;;;;;5052437;28;20398;-72
2023/08/11 11:54:31;;;;;;;1999.90;999.90;;;30.90;31.20;;;;;;5052364;28;20178;-72
2023/08/11 11:56:57;;;;;;;1999.90;999.90;;;31.10;31.40;;;;;;5052987;28;20832;-72